Rock Falls, Nebraska
Current Conditions -  °F | °C
As of 8:35 PM on Wednesday 17 Dec 2014 (Local Time) from KHDE Reporting Station
Overcast Overcast  
Wind Chill: 16°   Ceiling: 2300
Heat Index: 24°   Visibility: 10mi
Dew Point: 21°   Wind: 8mph
Humidity: 87%   Direction: 110°ESE
Pressure: 30.14"   Gusts: NA
Location:  40.3923°N, 99.5355°W
Report Text: KHDE 180235Z AUTO 11007KT 10SM OVC023 M04/M06 A3014 RMK AO2 T10421060
Loading
Personal Weather Stations






























Interactive Weather Map New forecast layout! Learn more

10-Day Weather Forecast

Advertisements
Track Severe Weather on mobile